Time;durP1;ratioP1;P1;durP2;ratioP2;P2;SDS_P1;SDS_P2;PMS_P1;PMS_P2;Temp;Humidity;BMP_temperature;BMP_pressure;BME280_temperature;BME280_humidity;BME280_pressure;Samples;Min_cycle;Max_cycle;Signal;HPM_P1;HPM_P2
2023/06/01 00:02:39;;;;;;;79.53;35.58;;;;;;;;;;10432646;28;20025;-78
2023/06/01 00:07:40;;;;;;;69.63;29.92;;;;;;;;;;10443872;28;20039;-79
2023/06/01 00:12:42;;;;;;;48.08;23.92;;;;;;;;;;10444952;28;20033;-79
2023/06/01 00:17:43;;;;;;;47.78;22.65;;;;;;;;;;10445545;28;20582;-79
2023/06/01 00:22:44;;;;;;;55.95;25.58;;;;;;;;;;10441940;28;20021;-78
2023/06/01 00:27:45;;;;;;;50.95;22.75;;;;;;;;;;10433831;28;20034;-77
2023/06/01 00:32:46;;;;;;;45.08;21.73;;;;;;;;;;10420897;28;20709;-78
2023/06/01 00:37:47;;;;;;;51.85;23.13;;;;;;;;;;10414180;28;20042;-80
2023/06/01 00:42:48;;;;;;;47.78;24.38;;;;;;;;;;10445547;28;20029;-78
2023/06/01 00:47:49;;;;;;;36.95;15.18;;;;;;;;;;10432876;28;20028;-79
2023/06/01 00:52:50;;;;;;;26.52;11.65;;;;;;;;;;10436079;28;20459;-77
2023/06/01 00:57:52;;;;;;;22.95;9.52;;;;;;;;;;10444554;28;20386;-78
2023/06/01 01:02:53;;;;;;;22.48;9.60;;;;;;;;;;10438216;28;20090;-78
2023/06/01 01:08:14;;;;;;;25.95;9.20;;;;;;;;;;10428713;28;20041;-77
2023/06/01 01:13:21;;;;;;;23.85;8.75;;;;;;;;;;10440555;28;20492;-79
2023/06/01 01:18:27;;;;;;;27.83;9.07;;;;;;;;;;10410903;28;20045;-77
2023/06/01 01:23:49;;;;;;;15.73;6.78;;;;;;;;;;10438580;28;20530;-79
2023/06/01 01:28:51;;;;;;;16.13;6.85;;;;;;;;;;10438371;28;20033;-77
2023/06/01 01:33:55;;;;;;;22.27;8.45;;;;;;;;;;10443957;28;20110;-78
2023/06/01 01:38:56;;;;;;;17.65;7.38;;;;;;;;;;10424348;28;20045;-78
2023/06/01 01:43:59;;;;;;;17.63;7.82;;;;;;;;;;10449683;28;20388;-79
2023/06/01 01:49:10;;;;;;;21.23;7.28;;;;;;;;;;10445245;28;20695;-79
2023/06/01 01:54:11;;;;;;;19.00;7.50;;;;;;;;;;10431871;28;20076;-79
2023/06/01 01:59:12;;;;;;;17.02;8.48;;;;;;;;;;10451365;28;20454;-78
2023/06/01 02:04:13;;;;;;;27.20;8.73;;;;;;;;;;10451435;28;20033;-79
2023/06/01 02:09:14;;;;;;;21.87;9.23;;;;;;;;;;10442753;28;20037;-78
2023/06/01 02:14:15;;;;;;;23.23;8.50;;;;;;;;;;10450742;28;20820;-77
2023/06/01 02:19:17;;;;;;;21.23;9.60;;;;;;;;;;10450014;28;20086;-80
2023/06/01 02:24:18;;;;;;;25.33;9.90;;;;;;;;;;10445346;28;20083;-79
2023/06/01 02:29:21;;;;;;;25.53;11.80;;;;;;;;;;10450253;28;20029;-77
2023/06/01 02:34:22;;;;;;;27.42;10.80;;;;;;;;;;10435559;28;20101;-78
2023/06/01 02:39:24;;;;;;;22.27;11.10;;;;;;;;;;10435152;28;20031;-78
2023/06/01 02:44:25;;;;;;;26.27;11.13;;;;;;;;;;10449269;28;20032;-78
2023/06/01 02:49:26;;;;;;;26.93;11.57;;;;;;;;;;10431382;28;20490;-78
2023/06/01 02:54:27;;;;;;;24.43;11.63;;;;;;;;;;10432665;28;20050;-78
2023/06/01 02:59:28;;;;;;;23.02;10.95;;;;;;;;;;10435003;28;20037;-79
2023/06/01 03:04:32;;;;;;;25.43;10.70;;;;;;;;;;10420468;28;20481;-78
2023/06/01 03:09:33;;;;;;;21.43;10.37;;;;;;;;;;10436899;28;20035;-77
2023/06/01 03:14:34;;;;;;;22.70;9.77;;;;;;;;;;10438072;28;20045;-77
2023/06/01 03:19:35;;;;;;;21.27;10.70;;;;;;;;;;10442273;28;20170;-79
2023/06/01 03:24:41;;;;;;;22.45;10.18;;;;;;;;;;10426899;28;20199;-79
2023/06/01 03:29:42;;;;;;;21.95;9.93;;;;;;;;;;10447395;28;20436;-78
2023/06/01 03:34:43;;;;;;;24.37;10.10;;;;;;;;;;10414064;28;20040;-79
2023/06/01 03:39:44;;;;;;;21.98;10.88;;;;;;;;;;10416163;28;20036;-79
2023/06/01 03:44:45;;;;;;;19.83;10.23;;;;;;;;;;10447118;28;20512;-79
2023/06/01 03:49:46;;;;;;;29.53;12.13;;;;;;;;;;10436723;28;20032;-79
2023/06/01 03:54:47;;;;;;;24.13;11.87;;;;;;;;;;10437953;28;20464;-78
2023/06/01 03:59:48;;;;;;;28.05;12.00;;;;;;;;;;10421721;28;20026;-77
2023/06/01 04:04:49;;;;;;;24.87;11.63;;;;;;;;;;10442361;28;20029;-78
2023/06/01 04:09:50;;;;;;;21.05;11.25;;;;;;;;;;10409343;28;20064;-78
2023/06/01 04:14:51;;;;;;;18.92;9.45;;;;;;;;;;10414988;28;20047;-79
2023/06/01 04:19:52;;;;;;;22.73;10.43;;;;;;;;;;10443321;28;20102;-78
2023/06/01 04:24:53;;;;;;;22.23;10.68;;;;;;;;;;10405579;28;20026;-77
2023/06/01 04:29:54;;;;;;;21.95;10.80;;;;;;;;;;10415989;28;20374;-79
2023/06/01 04:34:56;;;;;;;17.95;11.25;;;;;;;;;;10443423;28;20033;-78
2023/06/01 04:39:57;;;;;;;19.48;9.90;;;;;;;;;;10445534;28;20480;-78
2023/06/01 04:44:58;;;;;;;19.27;11.00;;;;;;;;;;10445425;28;20036;-79
2023/06/01 04:50:00;;;;;;;27.45;11.05;;;;;;;;;;10444652;28;20036;-78
2023/06/01 04:55:04;;;;;;;24.42;11.25;;;;;;;;;;10444959;28;20079;-78
2023/06/01 05:00:13;;;;;;;21.05;10.85;;;;;;;;;;10444183;28;20075;-79
2023/06/01 05:05:15;;;;;;;21.17;11.63;;;;;;;;;;10444702;28;20137;-79
2023/06/01 05:10:16;;;;;;;22.83;11.70;;;;;;;;;;10444305;28;20417;-78
2023/06/01 05:15:17;;;;;;;19.60;11.00;;;;;;;;;;10444813;28;20033;-79
2023/06/01 05:20:18;;;;;;;20.80;10.73;;;;;;;;;;10444059;28;20035;-78
2023/06/01 05:25:19;;;;;;;27.00;11.80;;;;;;;;;;10444102;28;20032;-79
2023/06/01 05:30:20;;;;;;;20.80;12.25;;;;;;;;;;10437477;28;20033;-78
2023/06/01 05:35:21;;;;;;;23.77;11.45;;;;;;;;;;10436926;28;20033;-78
2023/06/01 05:40:22;;;;;;;26.95;11.85;;;;;;;;;;10443938;28;20033;-78
2023/06/01 05:45:23;;;;;;;16.77;11.13;;;;;;;;;;10444170;28;20542;-79
2023/06/01 05:50:25;;;;;;;21.83;11.20;;;;;;;;;;10443789;28;20029;-78
2023/06/01 05:55:26;;;;;;;18.80;10.20;;;;;;;;;;10443329;28;20099;-77
2023/06/01 06:00:27;;;;;;;18.52;10.45;;;;;;;;;;10446899;28;20032;-79
2023/06/01 06:05:28;;;;;;;22.23;11.23;;;;;;;;;;10451377;28;20047;-77
2023/06/01 06:10:29;;;;;;;22.88;11.95;;;;;;;;;;10451296;28;20027;-78
2023/06/01 06:15:30;;;;;;;27.67;11.68;;;;;;;;;;10450781;28;20448;-78
2023/06/01 06:20:31;;;;;;;30.20;12.65;;;;;;;;;;10450558;28;20041;-78
2023/06/01 06:25:32;;;;;;;20.92;11.50;;;;;;;;;;10449886;28;20029;-79
2023/06/01 06:30:33;;;;;;;22.63;11.82;;;;;;;;;;10437685;28;20480;-77
2023/06/01 06:35:34;;;;;;;23.58;11.02;;;;;;;;;;10449719;28;20064;-78
2023/06/01 06:40:35;;;;;;;22.45;9.93;;;;;;;;;;10450102;28;20108;-79
2023/06/01 06:45:36;;;;;;;19.25;9.43;;;;;;;;;;10449517;28;20041;-79
2023/06/01 06:50:37;;;;;;;16.23;8.85;;;;;;;;;;10449893;28;20400;-79
2023/06/01 06:55:38;;;;;;;16.60;6.85;;;;;;;;;;10449043;28;20037;-79
2023/06/01 07:00:39;;;;;;;11.55;5.22;;;;;;;;;;10447369;28;20048;-78
2023/06/01 07:05:40;;;;;;;9.90;5.90;;;;;;;;;;10448703;28;20025;-79
2023/06/01 07:10:41;;;;;;;14.65;5.53;;;;;;;;;;10448904;28;20025;-80
2023/06/01 07:15:42;;;;;;;16.00;5.97;;;;;;;;;;10447539;28;20032;-80
2023/06/01 07:20:43;;;;;;;9.20;5.43;;;;;;;;;;10447983;28;20028;-79
2023/06/01 07:25:44;;;;;;;12.05;4.63;;;;;;;;;;10447198;28;20457;-79
2023/06/01 07:30:48;;;;;;;8.55;4.47;;;;;;;;;;10448110;28;20025;-79
2023/06/01 07:35:52;;;;;;;10.70;4.40;;;;;;;;;;10447165;28;20746;-80
2023/06/01 07:40:53;;;;;;;11.23;4.83;;;;;;;;;;10447452;28;20508;-80
2023/06/01 07:45:55;;;;;;;11.50;5.85;;;;;;;;;;10447327;28;20025;-78
2023/06/01 07:50:56;;;;;;;16.15;5.05;;;;;;;;;;10446504;28;20052;-79
2023/06/01 07:55:57;;;;;;;13.40;5.47;;;;;;;;;;10447405;28;20492;-79
2023/06/01 08:00:58;;;;;;;13.80;5.93;;;;;;;;;;10447171;28;20431;-78
2023/06/01 08:06:02;;;;;;;11.65;5.82;;;;;;;;;;10445952;28;20029;-80
2023/06/01 08:11:03;;;;;;;7.53;4.17;;;;;;;;;;10446330;28;20120;-79
2023/06/01 08:16:04;;;;;;;9.60;4.05;;;;;;;;;;10445842;28;20041;-79
2023/06/01 08:21:08;;;;;;;11.38;3.45;;;;;;;;;;10445777;28;20029;-81
2023/06/01 08:26:09;;;;;;;10.52;3.85;;;;;;;;;;10445099;28;20079;-80
2023/06/01 08:31:10;;;;;;;7.95;3.42;;;;;;;;;;10445203;28;20676;-78
2023/06/01 08:36:11;;;;;;;7.78;2.88;;;;;;;;;;10444839;28;20037;-79
2023/06/01 08:41:26;;;;;;;6.13;2.53;;;;;;;;;;10445008;28;20064;-80
2023/06/01 08:46:27;;;;;;;7.15;2.85;;;;;;;;;;10445750;28;20108;-79
2023/06/01 08:51:28;;;;;;;6.40;2.50;;;;;;;;;;10444290;28;20095;-80
2023/06/01 08:56:29;;;;;;;5.47;2.92;;;;;;;;;;10445349;28;20029;-79
2023/06/01 09:01:31;;;;;;;5.60;2.58;;;;;;;;;;10444291;28;20062;-78
2023/06/01 09:06:33;;;;;;;6.60;2.85;;;;;;;;;;10444557;28;20029;-79
2023/06/01 09:11:34;;;;;;;5.07;2.28;;;;;;;;;;10444148;28;20051;-79
2023/06/01 09:16:39;;;;;;;5.80;2.60;;;;;;;;;;10443703;28;20025;-79
2023/06/01 09:21:40;;;;;;;6.63;2.53;;;;;;;;;;10444237;28;20087;-79
2023/06/01 09:26:41;;;;;;;8.65;2.92;;;;;;;;;;10444409;28;20100;-78
2023/06/01 09:31:44;;;;;;;9.07;2.80;;;;;;;;;;10444115;28;20075;-79
2023/06/01 09:36:46;;;;;;;4.68;2.60;;;;;;;;;;10449264;28;20108;-78
2023/06/01 09:41:58;;;;;;;5.35;3.30;;;;;;;;;;10452234;28;20369;-78
2023/06/01 09:47:10;;;;;;;7.03;2.40;;;;;;;;;;10451587;28;20029;-80
2023/06/01 09:52:14;;;;;;;7.03;2.50;;;;;;;;;;10451370;28;20049;-79
2023/06/01 09:57:23;;;;;;;4.50;2.50;;;;;;;;;;10449817;28;20021;-78
2023/06/01 10:02:25;;;;;;;4.70;2.67;;;;;;;;;;10441305;28;20032;-78
2023/06/01 10:07:27;;;;;;;6.75;2.80;;;;;;;;;;10451480;28;20032;-79
2023/06/01 10:12:28;;;;;;;5.30;2.60;;;;;;;;;;10450094;28;20040;-80
2023/06/01 10:17:29;;;;;;;4.72;2.30;;;;;;;;;;10450397;28;20025;-80
2023/06/01 10:22:30;;;;;;;5.95;2.50;;;;;;;;;;10449429;28;20024;-81
2023/06/01 10:27:36;;;;;;;3.83;2.20;;;;;;;;;;10450375;28;20033;-79
2023/06/01 10:32:37;;;;;;;5.70;2.65;;;;;;;;;;10450414;28;20406;-79
2023/06/01 10:37:38;;;;;;;7.70;2.35;;;;;;;;;;10449682;28;20032;-80
2023/06/01 10:42:40;;;;;;;8.48;2.33;;;;;;;;;;10449531;28;20021;-81
2023/06/01 10:47:41;;;;;;;5.90;2.10;;;;;;;;;;10449574;28;20047;-78
2023/06/01 10:52:42;;;;;;;3.78;2.25;;;;;;;;;;10449652;28;20053;-79
2023/06/01 10:57:44;;;;;;;4.07;2.13;;;;;;;;;;10448814;28;20017;-81
2023/06/01 11:02:49;;;;;;;5.45;1.98;;;;;;;;;;10448150;28;20032;-81
2023/06/01 11:07:51;;;;;;;3.40;1.85;;;;;;;;;;10448487;28;20028;-81
2023/06/01 11:13:12;;;;;;;12.13;2.42;;;;;;;;;;10448025;28;20574;-80
2023/06/01 11:18:32;;;;;;;5.60;2.53;;;;;;;;;;10447845;28;20094;-80
2023/06/01 11:23:34;;;;;;;2.58;2.25;;;;;;;;;;10447908;28;20052;-81
2023/06/01 11:28:35;;;;;;;4.88;2.40;;;;;;;;;;10448147;28;20059;-79
2023/06/01 11:33:38;;;;;;;3.53;2.08;;;;;;;;;;10447036;28;20040;-79
2023/06/01 11:38:40;;;;;;;5.97;2.63;;;;;;;;;;10447040;28;20024;-81
2023/06/01 11:43:42;;;;;;;3.95;2.10;;;;;;;;;;10446659;28;20040;-79
2023/06/01 11:48:43;;;;;;;3.80;2.58;;;;;;;;;;10446935;28;20087;-79
2023/06/01 11:53:44;;;;;;;6.55;2.72;;;;;;;;;;10446622;28;20056;-81
2023/06/01 11:58:45;;;;;;;5.28;2.20;;;;;;;;;;10445856;28;20031;-79
2023/06/01 12:03:47;;;;;;;4.88;2.10;;;;;;;;;;10446308;28;20063;-79
2023/06/01 12:08:54;;;;;;;5.72;2.58;;;;;;;;;;10445785;28;20017;-81
2023/06/01 12:13:55;;;;;;;6.32;2.75;;;;;;;;;;10438899;28;20041;-80
2023/06/01 12:18:56;;;;;;;5.72;2.67;;;;;;;;;;10436127;28;20124;-80
2023/06/01 12:23:57;;;;;;;4.05;2.50;;;;;;;;;;10434605;28;20032;-79
2023/06/01 12:28:59;;;;;;;3.63;2.58;;;;;;;;;;10439811;28;20029;-80
2023/06/01 12:34:00;;;;;;;5.30;2.58;;;;;;;;;;10425324;28;20526;-81
2023/06/01 12:39:04;;;;;;;4.88;2.38;;;;;;;;;;10429509;28;20041;-82
2023/06/01 12:44:05;;;;;;;;;;;;;;;;;;10441762;28;20079;-79
2023/06/01 12:49:17;;;;;;;5.13;2.28;;;;;;;;;;10412389;28;19917;-79
2023/06/01 12:54:18;;;;;;;6.10;2.55;;;;;;;;;;10436475;28;20057;-83
2023/06/01 12:59:19;;;;;;;4.75;2.42;;;;;;;;;;10420427;28;20151;-81
2023/06/01 13:04:21;;;;;;;4.80;2.28;;;;;;;;;;10443363;28;20025;-81
2023/06/01 13:09:22;;;;;;;8.20;2.55;;;;;;;;;;10431515;28;20029;-79
2023/06/01 13:14:23;;;;;;;4.88;2.60;;;;;;;;;;10416616;28;20637;-83
2023/06/01 13:19:25;;;;;;;3.28;2.00;;;;;;;;;;10420245;28;20021;-80
2023/06/01 13:24:26;;;;;;;7.43;2.10;;;;;;;;;;10406234;28;20037;-79
2023/06/01 13:29:27;;;;;;;4.22;1.92;;;;;;;;;;10403974;28;20045;-82
2023/06/01 13:34:28;;;;;;;5.32;2.65;;;;;;;;;;10416314;28;20068;-81
2023/06/01 13:39:29;;;;;;;6.57;2.13;;;;;;;;;;10417205;28;20055;-80
2023/06/01 13:44:30;;;;;;;4.07;2.28;;;;;;;;;;10443569;28;20112;-83
2023/06/01 13:49:31;;;;;;;5.15;2.30;;;;;;;;;;10444609;28;20112;-81
2023/06/01 13:54:32;;;;;;;3.97;2.40;;;;;;;;;;10421153;28;20078;-80
2023/06/01 13:59:35;;;;;;;5.68;2.58;;;;;;;;;;10448658;28;20025;-80
2023/06/01 14:04:36;;;;;;;5.43;2.30;;;;;;;;;;10432651;28;20086;-80
2023/06/01 14:09:37;;;;;;;3.63;2.17;;;;;;;;;;10436912;28;20784;-82
2023/06/01 14:14:38;;;;;;;4.25;2.00;;;;;;;;;;10450284;28;20044;-79
2023/06/01 14:19:40;;;;;;;5.13;2.17;;;;;;;;;;10414818;28;20681;-81
2023/06/01 14:24:41;;;;;;;3.65;2.13;;;;;;;;;;10415876;28;20017;-82
2023/06/01 14:29:43;;;;;;;4.60;2.40;;;;;;;;;;10432508;28;20862;-84
2023/06/01 14:34:44;;;;;;;3.03;1.92;;;;;;;;;;10419231;28;20036;-88
2023/06/01 14:39:46;;;;;;;3.55;1.73;;;;;;;;;;10435188;28;20044;-83
2023/06/01 14:44:47;;;;;;;2.25;1.40;;;;;;;;;;10448052;28;20435;-81
2023/06/01 14:49:48;;;;;;;4.00;2.10;;;;;;;;;;10427296;28;20070;-80
2023/06/01 14:54:49;;;;;;;4.63;2.45;;;;;;;;;;10408067;28;20061;-79
2023/06/01 14:59:50;;;;;;;3.70;2.08;;;;;;;;;;10403216;28;20324;-79
2023/06/01 15:04:51;;;;;;;5.03;2.13;;;;;;;;;;10396150;28;20434;-80
2023/06/01 15:09:53;;;;;;;5.80;2.70;;;;;;;;;;10396116;28;20035;-80
2023/06/01 15:14:53;;;;;;;4.43;1.85;;;;;;;;;;10403868;28;20445;-81
2023/06/01 15:19:55;;;;;;;4.65;2.08;;;;;;;;;;10390345;28;20041;-81
2023/06/01 15:24:56;;;;;;;6.93;4.40;;;;;;;;;;10386788;28;20583;-80
2023/06/01 15:29:57;;;;;;;7.15;2.60;;;;;;;;;;10413062;28;20041;-80
2023/06/01 15:34:58;;;;;;;4.40;2.50;;;;;;;;;;10409167;28;20037;-78
2023/06/01 15:39:59;;;;;;;5.65;3.20;;;;;;;;;;10429036;28;20476;-80
2023/06/01 15:45:00;;;;;;;4.43;2.30;;;;;;;;;;10432835;28;20041;-79
2023/06/01 15:50:03;;;;;;;4.00;2.25;;;;;;;;;;10422186;28;20037;-80
2023/06/01 15:55:04;;;;;;;3.65;2.67;;;;;;;;;;10410717;28;20080;-79
2023/06/01 16:00:06;;;;;;;4.82;3.03;;;;;;;;;;10424604;28;20125;-80
2023/06/01 16:05:07;;;;;;;5.88;2.53;;;;;;;;;;10419227;28;20074;-79
2023/06/01 16:10:09;;;;;;;4.78;2.97;;;;;;;;;;10400272;28;20032;-80
2023/06/01 16:15:10;;;;;;;3.80;2.72;;;;;;;;;;10414659;28;20190;-80
2023/06/01 16:20:11;;;;;;;6.50;3.55;;;;;;;;;;10402225;28;20489;-79
2023/06/01 16:25:12;;;;;;;7.18;2.25;;;;;;;;;;10412885;28;20600;-79
2023/06/01 16:30:13;;;;;;;5.97;2.67;;;;;;;;;;10408919;28;20164;-80
2023/06/01 16:35:14;;;;;;;3.22;2.38;;;;;;;;;;10413772;28;20500;-80
2023/06/01 16:40:17;;;;;;;3.15;2.28;;;;;;;;;;10435923;28;20037;-79
2023/06/01 16:45:18;;;;;;;3.53;2.47;;;;;;;;;;10437919;28;20043;-78
2023/06/01 16:50:19;;;;;;;3.45;2.17;;;;;;;;;;10410570;28;20041;-80
2023/06/01 16:55:20;;;;;;;8.75;2.47;;;;;;;;;;10427629;28;20057;-79
2023/06/01 17:00:24;;;;;;;3.60;2.17;;;;;;;;;;10431582;28;20049;-79
2023/06/01 17:05:27;;;;;;;3.67;2.08;;;;;;;;;;10402259;28;20472;-79
2023/06/01 17:10:28;;;;;;;3.25;1.77;;;;;;;;;;10397455;28;20033;-79
2023/06/01 17:15:30;;;;;;;3.05;2.00;;;;;;;;;;10411728;28;20041;-79
2023/06/01 17:20:31;;;;;;;5.65;1.80;;;;;;;;;;10423642;28;20025;-80
2023/06/01 17:25:32;;;;;;;3.30;2.03;;;;;;;;;;10400586;28;20037;-80
2023/06/01 17:30:33;;;;;;;5.57;2.70;;;;;;;;;;10427857;28;20034;-80
2023/06/01 17:35:34;;;;;;;5.90;2.05;;;;;;;;;;10423142;28;20046;-79
2023/06/01 17:40:35;;;;;;;3.47;2.83;;;;;;;;;;10413901;28;20056;-79
2023/06/01 17:45:36;;;;;;;3.67;1.90;;;;;;;;;;10430723;28;20039;-83
2023/06/01 17:50:37;;;;;;;4.10;2.20;;;;;;;;;;10443196;28;20396;-82
2023/06/01 17:55:38;;;;;;;4.82;2.40;;;;;;;;;;10432491;28;20045;-81
2023/06/01 18:00:39;;;;;;;4.95;2.00;;;;;;;;;;10419252;28;20037;-84
2023/06/01 18:05:40;;;;;;;5.93;2.20;;;;;;;;;;10408329;28;20069;-80
2023/06/01 18:10:41;;;;;;;4.10;2.30;;;;;;;;;;10410323;28;20026;-78
2023/06/01 18:15:42;;;;;;;2.58;1.95;;;;;;;;;;10397196;28;20849;-80
2023/06/01 18:20:43;;;;;;;3.80;2.15;;;;;;;;;;10409517;28;20228;-80
2023/06/01 18:25:44;;;;;;;4.63;2.45;;;;;;;;;;10407633;28;20172;-79
2023/06/01 18:30:45;;;;;;;2.88;2.20;;;;;;;;;;10402484;28;20052;-78
2023/06/01 18:35:46;;;;;;;3.75;2.20;;;;;;;;;;10399262;28;20548;-80
2023/06/01 18:40:47;;;;;;;3.72;2.45;;;;;;;;;;10402477;28;20156;-80
2023/06/01 18:45:50;;;;;;;2.38;1.90;;;;;;;;;;10400941;28;20109;-79
2023/06/01 18:50:51;;;;;;;6.10;2.38;;;;;;;;;;10400192;28;20029;-79
2023/06/01 18:55:52;;;;;;;5.28;2.42;;;;;;;;;;10408409;28;20053;-78
2023/06/01 19:00:53;;;;;;;4.45;2.40;;;;;;;;;;10395714;28;20061;-78
2023/06/01 19:05:55;;;;;;;6.22;3.15;;;;;;;;;;10399347;28;20029;-78
2023/06/01 19:10:58;;;;;;;5.63;3.30;;;;;;;;;;10407728;28;20025;-78
2023/06/01 19:15:59;;;;;;;10.50;3.78;;;;;;;;;;10406048;28;20058;-81
2023/06/01 19:21:32;;;;;;;5.07;3.00;;;;;;;;;;10407139;28;20026;-79
2023/06/01 19:26:33;;;;;;;8.88;3.45;;;;;;;;;;10392493;28;20052;-78
2023/06/01 19:31:36;;;;;;;6.38;3.35;;;;;;;;;;10398851;28;20033;-79
2023/06/01 19:36:43;;;;;;;5.35;3.40;;;;;;;;;;10422737;28;20041;-80
2023/06/01 19:41:44;;;;;;;8.48;3.65;;;;;;;;;;10430985;28;20038;-79
2023/06/01 19:46:46;;;;;;;7.32;3.70;;;;;;;;;;10443769;28;20078;-79
2023/06/01 19:51:47;;;;;;;5.93;3.30;;;;;;;;;;10425609;28;20506;-79
2023/06/01 19:56:48;;;;;;;6.25;2.85;;;;;;;;;;10428647;28;20038;-80
2023/06/01 20:01:49;;;;;;;7.78;3.33;;;;;;;;;;10422087;28;20035;-79
2023/06/01 20:06:51;;;;;;;5.05;3.30;;;;;;;;;;10446650;28;20036;-80
2023/06/01 20:11:55;;;;;;;6.28;3.70;;;;;;;;;;10431021;28;20782;-80
2023/06/01 20:16:57;;;;;;;8.43;4.07;;;;;;;;;;10438125;28;20083;-81
2023/06/01 20:21:58;;;;;;;7.15;4.00;;;;;;;;;;10433559;28;20041;-78
2023/06/01 20:27:00;;;;;;;6.90;3.95;;;;;;;;;;10432712;28;20030;-78
2023/06/01 20:32:01;;;;;;;9.25;4.13;;;;;;;;;;10416000;28;20037;-81
2023/06/01 20:37:06;;;;;;;7.50;4.35;;;;;;;;;;10443365;28;20043;-79
2023/06/01 20:42:07;;;;;;;9.02;3.72;;;;;;;;;;10445718;28;20032;-79
2023/06/01 20:47:08;;;;;;;5.47;3.45;;;;;;;;;;10435227;28;20392;-81
2023/06/01 20:52:09;;;;;;;11.57;4.00;;;;;;;;;;10445032;28;20045;-81
2023/06/01 20:57:11;;;;;;;10.10;4.68;;;;;;;;;;10444721;28;20043;-79
2023/06/01 21:02:14;;;;;;;7.22;4.13;;;;;;;;;;10440871;28;20030;-80
2023/06/01 21:07:15;;;;;;;7.60;4.13;;;;;;;;;;10436753;28;20051;-81
2023/06/01 21:12:16;;;;;;;8.32;4.38;;;;;;;;;;10431658;28;20067;-79
2023/06/01 21:17:17;;;;;;;9.65;4.57;;;;;;;;;;10444679;28;20028;-80
2023/06/01 21:22:18;;;;;;;9.68;4.38;;;;;;;;;;10442252;28;20420;-80
2023/06/01 21:27:19;;;;;;;11.77;4.88;;;;;;;;;;10444750;28;20044;-80
2023/06/01 21:32:20;;;;;;;8.02;4.05;;;;;;;;;;10450703;28;20048;-78
2023/06/01 21:37:21;;;;;;;6.95;3.45;;;;;;;;;;10452317;28;20021;-80
2023/06/01 21:42:22;;;;;;;5.55;3.22;;;;;;;;;;10452614;28;20487;-79
2023/06/01 21:47:23;;;;;;;7.57;3.42;;;;;;;;;;10452877;28;20033;-80
2023/06/01 21:52:24;;;;;;;6.20;3.55;;;;;;;;;;10452117;28;20049;-81
2023/06/01 21:57:25;;;;;;;4.80;3.28;;;;;;;;;;10451967;28;20087;-80
2023/06/01 22:02:26;;;;;;;6.35;3.50;;;;;;;;;;10451284;28;20492;-81
2023/06/01 22:07:27;;;;;;;5.28;3.15;;;;;;;;;;10432493;28;20127;-80
2023/06/01 22:12:29;;;;;;;5.47;3.17;;;;;;;;;;10451731;28;20029;-80
2023/06/01 22:17:31;;;;;;;7.35;3.60;;;;;;;;;;10450639;28;20854;-79
2023/06/01 22:22:32;;;;;;;5.28;3.53;;;;;;;;;;10448480;28;20029;-79
2023/06/01 22:27:33;;;;;;;7.00;3.42;;;;;;;;;;10450392;28;20033;-79
2023/06/01 22:32:34;;;;;;;5.97;3.25;;;;;;;;;;10451111;28;20025;-79
2023/06/01 22:37:35;;;;;;;6.88;4.15;;;;;;;;;;10450528;28;20029;-79
2023/06/01 22:42:36;;;;;;;6.60;3.90;;;;;;;;;;10446265;28;20105;-80
2023/06/01 22:47:37;;;;;;;7.40;4.22;;;;;;;;;;10439911;28;20021;-79
2023/06/01 22:52:38;;;;;;;5.95;4.50;;;;;;;;;;10449826;28;20120;-80
2023/06/01 22:57:39;;;;;;;8.98;5.47;;;;;;;;;;10445890;28;20472;-78
2023/06/01 23:02:40;;;;;;;10.52;5.90;;;;;;;;;;10376529;28;20038;-78
2023/06/01 23:07:41;;;;;;;12.15;6.40;;;;;;;;;;10366717;28;20036;-80
2023/06/01 23:12:48;;;;;;;9.43;5.32;;;;;;;;;;10367587;28;20041;-80
2023/06/01 23:17:51;;;;;;;10.68;6.00;;;;;;;;;;10367184;28;20076;-79
2023/06/01 23:22:53;;;;;;;12.10;6.18;;;;;;;;;;10384590;28;20029;-79
2023/06/01 23:27:54;;;;;;;11.50;5.93;;;;;;;;;;10407548;28;20030;-78
2023/06/01 23:32:55;;;;;;;11.73;6.13;;;;;;;;;;10407098;28;20473;-79
2023/06/01 23:37:56;;;;;;;10.23;6.22;;;;;;;;;;10407717;28;20033;-79
2023/06/01 23:42:57;;;;;;;12.32;6.50;;;;;;;;;;10406846;28;20120;-79
2023/06/01 23:47:58;;;;;;;11.77;7.00;;;;;;;;;;10406752;28;20526;-80
2023/06/01 23:52:59;;;;;;;11.63;6.80;;;;;;;;;;10406231;28;20045;-80
2023/06/01 23:58:01;;;;;;;16.08;7.00;;;;;;;;;;10406783;28;20030;-79
